Time;durP1;ratioP1;P1;durP2;ratioP2;P2;SDS_P1;SDS_P2;PMS_P1;PMS_P2;Temp;Humidity;BMP_temperature;BMP_pressure;BME280_temperature;BME280_humidity;BME280_pressure;Samples;Min_cycle;Max_cycle;Signal;HPM_P1;HPM_P2
2020/12/31 00:00:00;;;;;;;4.57;3.65;;;;;;;6.43;68.71;100401.97;5025162;28;20485;-79
2020/12/31 00:02:27;;;;;;;3.80;3.25;;;;;;;6.46;68.60;100404.56;5024107;28;20076;-78
2020/12/31 00:04:53;;;;;;;5.35;3.95;;;;;;;6.48;68.38;100410.69;5030297;28;20108;-77
2020/12/31 00:07:20;;;;;;;5.80;4.05;;;;;;;6.44;68.98;100405.47;5028805;28;20490;-80
2020/12/31 00:09:46;;;;;;;9.80;5.32;;;;;;;6.44;68.79;100406.34;5027393;28;20041;-79
2020/12/31 00:12:13;;;;;;;9.20;6.90;;;;;;;6.27;69.40;100401.25;5030051;28;20032;-79
2020/12/31 00:14:39;;;;;;;11.82;7.50;;;;;;;6.39;68.97;100402.91;5030581;28;20431;-79
2020/12/31 00:17:06;;;;;;;12.07;8.43;;;;;;;6.32;69.01;100393.31;5031772;28;20056;-81
2020/12/31 00:19:34;;;;;;;12.77;8.48;;;;;;;6.18;69.54;100403.09;5029110;28;20392;-79
2020/12/31 00:22:00;;;;;;;9.68;7.10;;;;;;;6.17;69.38;100399.59;5029573;28;20021;-78
2020/12/31 00:24:30;;;;;;;9.32;6.57;;;;;;;6.14;69.11;100387.34;5028901;28;20045;-78
2020/12/31 00:26:56;;;;;;;8.55;5.82;;;;;;;6.13;68.87;100380.34;5026487;28;20113;-79
2020/12/31 00:29:23;;;;;;;8.38;5.63;;;;;;;6.19;68.96;100376.75;5026828;28;20035;-79
2020/12/31 00:31:49;;;;;;;7.90;4.72;;;;;;;6.19;68.79;100383.78;5025727;28;20037;-79
2020/12/31 00:34:16;;;;;;;8.80;4.45;;;;;;;6.11;68.88;100376.84;5026865;28;20067;-78
2020/12/31 00:36:43;;;;;;;5.50;3.83;;;;;;;6.17;68.67;100380.28;5028422;28;20026;-78
2020/12/31 00:39:09;;;;;;;6.82;3.67;;;;;;;6.14;68.90;100379.47;5019359;28;20074;-79
2020/12/31 00:41:36;;;;;;;4.72;3.20;;;;;;;6.19;68.78;100381.16;5028392;28;20025;-78
2020/12/31 00:44:02;;;;;;;6.68;4.18;;;;;;;6.09;69.01;100380.38;5022800;28;20033;-78
2020/12/31 00:46:28;;;;;;;4.75;3.25;;;;;;;6.15;68.88;100375.91;5017808;28;20109;-78
2020/12/31 00:48:55;;;;;;;6.90;4.63;;;;;;;6.14;68.77;100368.94;5017652;28;20489;-78
2020/12/31 00:51:21;;;;;;;8.10;5.43;;;;;;;6.17;68.72;100364.50;5031793;28;20116;-79
2020/12/31 00:53:48;;;;;;;12.82;7.75;;;;;;;6.10;69.37;100372.47;5028837;28;20424;-79
2020/12/31 00:56:14;;;;;;;11.88;7.10;;;;;;;6.16;69.07;100366.28;5023090;28;20034;-79
2020/12/31 00:58:41;;;;;;;9.70;6.53;;;;;;;6.22;69.11;100366.22;5016924;28;20049;-78
2020/12/31 01:01:07;;;;;;;9.95;6.72;;;;;;;6.27;69.06;100366.19;5014856;28;20084;-79
2020/12/31 01:03:33;;;;;;;13.77;7.13;;;;;;;6.24;69.27;100359.19;5027827;28;20022;-79
2020/12/31 01:06:00;;;;;;;12.23;8.52;;;;;;;6.34;69.04;100364.34;5025045;28;20074;-79
2020/12/31 01:08:27;;;;;;;9.88;6.88;;;;;;;6.40;68.76;100359.03;5018126;28;20073;-78
2020/12/31 01:10:54;;;;;;;8.40;6.20;;;;;;;6.38;68.97;100359.06;5015771;28;20036;-78
2020/12/31 01:13:20;;;;;;;10.95;7.05;;;;;;;6.41;69.12;100361.63;5024442;28;20033;-78
2020/12/31 01:15:47;;;;;;;11.85;7.53;;;;;;;6.45;68.99;100365.97;5022566;28;20053;-78
2020/12/31 01:18:13;;;;;;;8.75;6.00;;;;;;;6.44;68.94;100366.88;5019348;28;20102;-79
2020/12/31 01:20:39;;;;;;;10.68;6.45;;;;;;;6.46;69.01;100365.09;5028477;28;20687;-79
2020/12/31 01:23:06;;;;;;;10.32;6.47;;;;;;;6.47;69.00;100361.56;5030293;28;20103;-78
2020/12/31 01:25:34;;;;;;;10.30;6.40;;;;;;;6.49;68.96;100358.91;5023217;28;20076;-78
2020/12/31 01:28:01;;;;;;;11.98;7.18;;;;;;;6.48;69.21;100363.31;5021771;28;20033;-78
2020/12/31 01:30:27;;;;;;;13.77;7.63;;;;;;;6.50;69.03;100365.06;5018859;28;20041;-79
2020/12/31 01:32:54;;;;;;;10.77;7.10;;;;;;;6.52;69.30;100360.63;5027739;28;20017;-79
2020/12/31 01:35:21;;;;;;;11.48;8.45;;;;;;;6.47;69.45;100358.06;5028088;28;20030;-79
2020/12/31 01:37:48;;;;;;;14.07;8.82;;;;;;;6.47;69.35;100361.56;5023866;28;20096;-79
2020/12/31 01:40:14;;;;;;;15.40;10.15;;;;;;;6.44;68.92;100359.00;5030262;28;20058;-78
2020/12/31 01:42:42;;;;;;;18.08;11.25;;;;;;;6.46;68.89;100354.56;5029319;28;20476;-80
2020/12/31 01:45:09;;;;;;;21.98;12.02;;;;;;;6.38;68.91;100359.06;5030999;28;20576;-79
2020/12/31 01:47:36;;;;;;;21.65;13.70;;;;;;;6.34;68.93;100359.09;5029360;28;20104;-81
2020/12/31 01:50:04;;;;;;;18.35;12.23;;;;;;;6.31;69.14;100360.84;5027146;28;20036;-78
2020/12/31 01:52:32;;;;;;;22.60;14.30;;;;;;;6.33;69.25;100358.22;5025267;28;20366;-78
2020/12/31 01:55:01;;;;;;;21.23;13.40;;;;;;;6.31;69.09;100358.22;5030424;28;20384;-79
2020/12/31 01:57:29;;;;;;;24.33;15.88;;;;;;;6.22;69.42;100360.97;5025336;28;20075;-79
2020/12/31 01:59:56;;;;;;;25.52;14.40;;;;;;;6.26;69.29;100361.81;5026506;28;20123;-78
2020/12/31 02:02:24;;;;;;;25.35;16.30;;;;;;;6.21;69.92;100358.34;5023083;28;20017;-79
2020/12/31 02:04:52;;;;;;;27.58;16.17;;;;;;;6.21;69.86;100366.25;5023224;28;20033;-79
2020/12/31 02:07:20;;;;;;;27.13;15.52;;;;;;;6.28;69.59;100358.28;5031819;28;20512;-78
2020/12/31 02:09:48;;;;;;;28.30;17.30;;;;;;;6.30;69.81;100359.09;5029024;28;20040;-78
2020/12/31 02:12:15;;;;;;;24.73;16.45;;;;;;;6.32;69.79;100359.13;5060568;22;20068;-80
2020/12/31 02:14:50;;;;;;;27.33;18.02;;;;;;;6.36;70.16;100363.44;5050461;28;20048;-81
2020/12/31 02:17:16;;;;;;;30.02;19.67;;;;;;;6.39;69.85;100359.91;5050090;28;20084;-81
2020/12/31 02:19:43;;;;;;;34.88;19.23;;;;;;;6.39;69.97;100358.16;5048081;28;20384;-81
2020/12/31 02:22:11;;;;;;;29.27;17.77;;;;;;;6.43;70.12;100354.59;5050746;28;20025;-80
2020/12/31 02:24:38;;;;;;;23.98;16.95;;;;;;;6.46;69.89;100358.97;5049488;28;20036;-80
2020/12/31 02:27:04;;;;;;;28.80;17.70;;;;;;;6.40;70.06;100357.25;5054681;28;20029;-80
2020/12/31 02:29:31;;;;;;;25.92;16.27;;;;;;;6.45;70.17;100358.06;5053055;28;20112;-80
2020/12/31 02:31:57;;;;;;;20.02;13.80;;;;;;;6.43;69.98;100354.59;5052579;28;20732;-81
2020/12/31 02:34:24;;;;;;;19.08;12.95;;;;;;;6.40;70.00;100353.75;5050749;28;20033;-81
2020/12/31 02:36:51;;;;;;;14.52;10.63;;;;;;;6.18;70.12;100354.00;5051890;28;20071;-81
2020/12/31 02:39:18;;;;;;;14.75;8.98;;;;;;;6.27;69.94;100342.50;5051012;28;20055;-81
2020/12/31 02:41:45;;;;;;;12.30;7.60;;;;;;;6.09;70.00;100349.69;5051984;28;20027;-81
2020/12/31 02:44:11;;;;;;;9.85;6.75;;;;;;;6.24;69.60;100346.03;5051427;28;20032;-81
2020/12/31 02:46:38;;;;;;;13.68;7.53;;;;;;;6.29;69.22;100345.97;5051431;28;20040;-81
2020/12/31 02:49:05;;;;;;;14.43;8.75;;;;;;;6.26;69.36;100349.50;5050681;28;20052;-82
2020/12/31 02:51:32;;;;;;;14.25;8.98;;;;;;;6.32;69.24;100348.59;5050217;28;20040;-81
2020/12/31 02:53:59;;;;;;;13.43;8.27;;;;;;;6.34;69.07;100338.91;5050601;28;20068;-83
2020/12/31 02:56:26;;;;;;;12.85;8.05;;;;;;;6.29;69.43;100345.97;5050938;28;20067;-81
2020/12/31 02:58:52;;;;;;;14.63;9.52;;;;;;;6.27;69.11;100348.63;5051029;28;20100;-81
2020/12/31 03:01:20;;;;;;;12.32;7.78;;;;;;;6.17;69.44;100352.25;5050866;28;20108;-81
2020/12/31 03:03:47;;;;;;;11.80;6.95;;;;;;;6.13;69.47;100350.50;5050946;28;20036;-81
2020/12/31 03:06:14;;;;;;;10.40;7.22;;;;;;;6.05;69.29;100347.97;5049633;28;20086;-83
2020/12/31 03:08:42;;;;;;;5.78;4.78;;;;;;;5.97;69.48;100344.50;5049509;28;20455;-81
2020/12/31 03:11:14;;;;;;;6.57;4.68;;;;;;;6.05;69.07;100337.44;5048410;28;20041;-83
2020/12/31 03:13:40;;;;;;;7.70;4.93;;;;;;;6.04;69.21;100343.59;5051459;28;20021;-84
2020/12/31 03:16:07;;;;;;;6.78;4.60;;;;;;;6.00;69.03;100339.25;5050708;28;20048;-83
2020/12/31 03:18:33;;;;;;;8.13;4.03;;;;;;;5.98;69.03;100336.63;5050829;28;20431;-82
2020/12/31 03:20:59;;;;;;;5.63;4.07;;;;;;;5.98;69.18;100340.97;5048087;28;20029;-82
2020/12/31 03:23:26;;;;;;;6.68;4.65;;;;;;;6.00;68.79;100339.25;5049788;28;20025;-82
2020/12/31 03:25:52;;;;;;;6.65;4.03;;;;;;;5.98;68.75;100340.97;5049359;28;20033;-82
2020/12/31 03:28:19;;;;;;;6.32;4.40;;;;;;;6.00;68.88;100336.63;5049354;28;20023;-82
2020/12/31 03:30:46;;;;;;;6.60;4.32;;;;;;;6.03;68.73;100338.34;5049095;28;20044;-82
2020/12/31 03:33:14;;;;;;;4.95;3.70;;;;;;;6.01;68.73;100329.59;5050055;28;20045;-82
2020/12/31 03:35:43;;;;;;;5.55;3.30;;;;;;;5.97;68.86;100329.59;5046660;28;20029;-84
2020/12/31 03:38:11;;;;;;;6.53;4.70;;;;;;;5.98;68.90;100327.81;5050258;28;20536;-82
2020/12/31 03:40:38;;;;;;;8.35;4.70;;;;;;;5.97;68.98;100320.84;5050334;28;20099;-83
2020/12/31 03:43:05;;;;;;;5.38;3.95;;;;;;;5.91;68.89;100324.41;5048145;28;20032;-82
2020/12/31 03:45:32;;;;;;;7.30;4.13;;;;;;;5.95;68.65;100319.97;5049272;28;20060;-81
2020/12/31 03:47:59;;;;;;;6.75;4.97;;;;;;;5.95;68.78;100320.84;5049196;28;20029;-82
2020/12/31 03:50:26;;;;;;;6.00;4.70;;;;;;;5.91;68.76;100319.13;5050214;28;20043;-82
2020/12/31 03:52:52;;;;;;;8.65;5.47;;;;;;;5.96;68.71;100316.47;5048373;28;20045;-82
2020/12/31 03:55:19;;;;;;;7.25;4.47;;;;;;;5.94;68.66;100311.22;5050124;28;20063;-82
2020/12/31 03:57:46;;;;;;;7.53;5.45;;;;;;;5.91;68.77;100313.00;5048191;28;20036;-81
2020/12/31 04:00:12;;;;;;;8.13;4.93;;;;;;;5.87;68.89;100312.16;5048905;28;20436;-82
2020/12/31 04:02:39;;;;;;;8.10;5.00;;;;;;;5.87;68.95;100303.41;5049369;28;20357;-82
2020/12/31 04:05:06;;;;;;;8.65;5.43;;;;;;;5.86;68.81;100302.53;5052523;28;20027;-83
2020/12/31 04:07:33;;;;;;;7.82;5.38;;;;;;;5.86;68.78;100301.66;5048842;28;20032;-82
2020/12/31 04:09:59;;;;;;;7.03;5.03;;;;;;;5.87;68.86;100301.66;5048903;28;20037;-82
2020/12/31 04:12:25;;;;;;;7.45;4.85;;;;;;;5.85;68.62;100298.16;5049456;28;20044;-82
2020/12/31 04:14:52;;;;;;;7.60;5.00;;;;;;;5.80;69.12;100295.56;5047679;28;20484;-83
2020/12/31 04:17:18;;;;;;;9.68;5.88;;;;;;;5.79;68.88;100288.56;5046410;28;20041;-83
2020/12/31 04:19:44;;;;;;;9.20;6.05;;;;;;;5.78;69.18;100289.47;5048499;28;20444;-83
2020/12/31 04:22:11;;;;;;;6.97;5.53;;;;;;;5.77;68.96;100290.34;5047979;28;20075;-83
2020/12/31 04:24:37;;;;;;;7.13;5.28;;;;;;;5.75;68.87;100284.22;5049237;28;20396;-82
2020/12/31 04:27:04;;;;;;;9.05;5.75;;;;;;;5.77;68.90;100277.19;5050246;28;20500;-81
2020/12/31 04:29:31;;;;;;;9.32;6.60;;;;;;;5.73;68.99;100278.13;5052317;28;20036;-82
2020/12/31 04:31:57;;;;;;;9.10;6.97;;;;;;;5.73;68.92;100280.75;5047553;28;20048;-82
2020/12/31 04:34:23;;;;;;;11.07;7.60;;;;;;;5.74;69.04;100279.84;5049700;28;20029;-82
2020/12/31 04:36:50;;;;;;;10.82;7.97;;;;;;;5.72;69.02;100271.13;5049512;28;20025;-82
2020/12/31 04:39:16;;;;;;;10.98;7.88;;;;;;;5.74;68.98;100273.72;5048124;28;20106;-83
2020/12/31 04:41:42;;;;;;;13.70;8.52;;;;;;;5.75;68.70;100270.22;5048311;28;20055;-82
2020/12/31 04:44:12;;;;;;;14.98;9.30;;;;;;;5.75;68.87;100272.84;5044286;28;20083;-83
2020/12/31 04:46:41;;;;;;;11.77;8.38;;;;;;;5.78;68.88;100276.31;5048490;28;20036;-82
2020/12/31 04:49:21;;;;;;;19.30;11.40;;;;;;;5.87;68.64;100269.22;5048279;28;20039;-81
2020/12/31 04:51:49;;;;;;;15.05;10.50;;;;;;;5.79;68.76;100275.41;5046381;28;20041;-82
2020/12/31 04:54:16;;;;;;;15.63;11.27;;;;;;;5.75;68.96;100267.59;5050421;28;20033;-82
2020/12/31 04:56:53;;;;;;;17.35;12.23;;;;;;;5.81;68.78;100270.16;5048184;28;20452;-82
2020/12/31 04:59:28;;;;;;;19.17;12.15;;;;;;;5.78;68.62;100263.19;5051322;28;20044;-82
2020/12/31 05:02:03;;;;;;;16.30;11.35;;;;;;;5.79;68.71;100257.00;5049795;28;20090;-81
2020/12/31 05:04:30;;;;;;;23.85;13.32;;;;;;;5.77;68.67;100252.66;5051343;28;20025;-82
2020/12/31 05:06:58;;;;;;;17.67;12.07;;;;;;;5.78;68.78;100264.91;5050278;28;20045;-82
2020/12/31 05:09:25;;;;;;;15.45;11.43;;;;;;;5.74;68.69;100263.22;5045758;28;20033;-82
2020/12/31 05:11:53;;;;;;;17.70;12.82;;;;;;;5.76;68.37;100251.78;5053047;22;20426;-77
2020/12/31 05:14:36;;;;;;;17.23;11.95;;;;;;;5.84;68.33;100259.59;5032266;28;20029;-77
2020/12/31 05:17:19;;;;;;;17.05;11.60;;;;;;;5.83;68.43;100261.38;5028667;28;20033;-77
2020/12/31 05:19:46;;;;;;;19.75;12.70;;;;;;;5.71;68.58;100263.22;5038829;28;20033;-77
2020/12/31 05:24:56;;;;;;;17.25;12.60;;;;;;;5.62;68.82;100262.44;5105681;27;20379;-79
2020/12/31 05:27:24;;;;;;;17.20;11.68;;;;;;;5.62;68.89;100265.06;5108464;28;20032;-81
2020/12/31 05:30:07;;;;;;;24.60;13.23;;;;;;;5.69;68.90;100262.38;5105999;28;20116;-79
2020/12/31 05:32:36;;;;;;;21.40;14.52;;;;;;;5.57;69.17;100261.63;5088748;28;20040;-81
2020/12/31 05:35:11;;;;;;;20.25;14.38;;;;;;;5.62;69.03;100264.19;5105296;28;20028;-78
2020/12/31 05:37:37;;;;;;;23.80;15.27;;;;;;;5.56;69.19;100266.88;5096088;28;20033;-79
2020/12/31 05:40:07;;;;;;;22.08;15.10;;;;;;;5.57;69.18;100260.72;5105670;28;20044;-79
2020/12/31 05:42:36;;;;;;;21.60;15.27;;;;;;;5.59;69.14;100269.47;5100249;28;20024;-78
2020/12/31 05:47:50;;;;;;;22.65;16.23;;;;;;;5.55;69.06;100268.63;5105516;27;20371;-78
2020/12/31 05:50:25;;;;;;;32.20;19.00;;;;;;;5.56;69.01;100270.38;5090658;28;20063;-78
2020/12/31 05:52:52;;;;;;;29.77;16.42;;;;;;;5.51;69.33;100265.16;5099683;28;20040;-78
2020/12/31 05:55:21;;;;;;;23.42;15.82;;;;;;;5.54;69.04;100260.78;5093468;28;20038;-78
2020/12/31 06:00:30;;;;;;;26.75;18.27;;;;;;;5.53;68.56;100272.16;5117106;27;20361;-77
2020/12/31 06:03:00;;;;;;;24.77;17.80;;;;;;;5.54;68.77;100272.13;5106931;28;20036;-77
2020/12/31 06:05:28;;;;;;;28.08;17.88;;;;;;;5.49;68.78;100279.19;5113124;28;20035;-80
2020/12/31 06:07:56;;;;;;;27.27;18.75;;;;;;;5.47;68.92;100279.22;5108170;27;20452;-78
2020/12/31 06:10:31;;;;;;;26.52;17.98;;;;;;;5.54;68.60;100276.53;5106266;27;20043;-77
2020/12/31 06:12:59;;;;;;;22.90;16.45;;;;;;;5.48;68.95;100280.06;5099194;28;20031;-77
2020/12/31 06:18:20;;;;;;;26.08;18.02;;;;;;;5.49;68.78;100282.69;5118586;27;20353;-80
2020/12/31 06:21:02;;;;;;;25.98;16.88;;;;;;;5.55;68.69;100289.66;5097215;28;20439;-79
2020/12/31 06:23:37;;;;;;;29.58;19.98;;;;;;;5.51;69.11;100283.56;5094409;28;20364;-79
2020/12/31 06:26:13;;;;;;;28.92;20.13;;;;;;;5.53;68.99;100285.31;5107450;28;20039;-80
2020/12/31 06:28:45;;;;;;;29.15;18.58;;;;;;;5.50;69.04;100287.06;5075521;28;20021;-79
2020/12/31 06:31:12;;;;;;;29.77;20.90;;;;;;;5.47;69.16;100287.09;5088134;28;20043;-80
2020/12/31 06:33:49;;;;;;;34.75;22.13;;;;;;;5.56;69.01;100285.25;5092250;28;20098;-80
2020/12/31 06:36:18;;;;;;;28.20;20.15;;;;;;;5.48;69.16;100293.22;5076774;28;20498;-80
2020/12/31 06:38:47;;;;;;;31.88;21.50;;;;;;;5.47;68.87;100283.56;5080136;28;20029;-79
2020/12/31 06:44:17;;;;;;;35.53;23.05;;;;;;;5.44;69.22;100287.09;5105576;27;20358;-81
2020/12/31 06:46:45;;;;;;;39.45;24.02;;;;;;;5.40;69.79;100295.91;5106199;28;20030;-81
2020/12/31 06:49:12;;;;;;;44.95;24.83;;;;;;;5.44;69.77;100287.09;5109988;28;20136;-82
2020/12/31 06:51:38;;;;;;;40.15;23.27;;;;;;;5.45;69.45;100294.09;5100493;28;20021;-81
2020/12/31 06:54:05;;;;;;;46.80;24.25;;;;;;;5.48;69.60;100288.84;5098581;28;20403;-84
2020/12/31 06:56:51;;;;;;;43.17;24.85;;;;;;;5.56;69.53;100291.41;5093665;28;20036;-81
2020/12/31 06:59:43;;;;;;;42.22;23.38;;;;;;;5.56;69.77;100285.25;5098219;27;20052;-84
2020/12/31 07:04:54;;;;;;;41.90;23.67;;;;;;;5.50;69.32;100292.31;5072894;27;20447;-81
2020/12/31 07:10:02;;;;;;;44.85;24.65;;;;;;;5.44;69.38;100288.88;5074072;27;20581;-83
2020/12/31 07:15:17;;;;;;;43.42;23.38;;;;;;;5.36;69.17;100296.81;5068171;27;20886;-83
2020/12/31 07:17:46;;;;;;;36.58;21.92;;;;;;;5.33;69.10;100304.72;5041217;28;20022;-82
2020/12/31 07:20:18;;;;;;;39.03;22.88;;;;;;;5.35;68.88;100308.22;5039829;28;20120;-82
2020/12/31 07:22:46;;;;;;;40.90;22.70;;;;;;;5.29;69.23;100310.88;5029252;28;20104;-82
2020/12/31 07:25:14;;;;;;;46.47;26.20;;;;;;;5.29;68.80;100316.13;5028099;28;20040;-82
2020/12/31 07:27:42;;;;;;;46.97;23.08;;;;;;;5.27;68.97;100312.63;5026117;28;20030;-81
2020/12/31 07:32:59;;;;;;;44.70;24.05;;;;;;;5.29;68.75;100317.00;5069715;28;20467;-79
2020/12/31 07:38:16;;;;;;;40.90;22.05;;;;;;;5.38;69.22;100318.69;5086319;27;20573;-81
2020/12/31 07:40:52;;;;;;;46.28;24.25;;;;;;;5.48;69.30;100319.50;5067844;28;20492;-81
2020/12/31 07:46:02;;;;;;;52.97;25.88;;;;;;;5.51;69.56;100327.38;5069408;27;20484;-81
2020/12/31 07:48:29;;;;;;;53.38;25.98;;;;;;;5.58;69.92;100330.81;5053412;28;20415;-83
2020/12/31 07:53:37;;;;;;;55.45;28.80;;;;;;;5.71;70.05;100328.94;5034569;28;20403;-82
2020/12/31 07:56:11;;;;;;;54.97;28.40;;;;;;;5.80;69.96;100329.75;5015059;28;20392;-83
2020/12/31 07:58:37;;;;;;;49.03;24.45;;;;;;;5.80;70.19;100329.75;5018089;28;20047;-83
2020/12/31 08:01:05;;;;;;;46.17;24.13;;;;;;;5.88;70.14;100334.06;5008676;28;20034;-83
2020/12/31 08:03:32;;;;;;;46.70;25.42;;;;;;;5.91;70.25;100336.69;5009460;28;20477;-84
2020/12/31 08:06:01;;;;;;;42.47;23.27;;;;;;;5.97;70.42;100340.13;5008044;28;20425;-84
2020/12/31 08:08:27;;;;;;;45.03;24.67;;;;;;;5.99;70.53;100340.13;5005832;28;20048;-82
2020/12/31 08:10:54;;;;;;;49.55;25.17;;;;;;;6.01;70.44;100338.38;5026317;23;20041;-83
2020/12/31 08:13:20;;;;;;;49.13;26.13;;;;;;;6.03;70.63;100339.22;5035781;28;20038;-79
2020/12/31 08:15:51;;;;;;;46.70;26.63;;;;;;;6.12;70.56;100339.13;5043808;28;20035;-82
2020/12/31 08:18:18;;;;;;;53.35;25.75;;;;;;;6.13;70.72;100340.88;5046902;28;20037;-80
2020/12/31 08:20:46;;;;;;;53.58;27.70;;;;;;;6.19;70.41;100342.56;5049206;28;20030;-81
2020/12/31 08:23:17;;;;;;;57.67;27.23;;;;;;;6.22;70.44;100336.38;5049573;28;20140;-81
2020/12/31 08:25:45;;;;;;;51.55;29.08;;;;;;;6.26;70.51;100346.03;5048693;28;20036;-81
2020/12/31 08:28:20;;;;;;;58.15;29.02;;;;;;;6.31;70.35;100341.56;5048810;28;20033;-80
2020/12/31 08:30:47;;;;;;;65.18;31.20;;;;;;;6.30;70.51;100337.19;5041516;28;20087;-81
2020/12/31 08:33:21;;;;;;;60.65;29.20;;;;;;;6.31;70.48;100339.81;5048102;28;20034;-80
2020/12/31 08:35:47;;;;;;;58.13;30.33;;;;;;;6.37;70.32;100343.25;5039606;28;20041;-81
2020/12/31 08:38:17;;;;;;;52.60;27.20;;;;;;;6.38;70.10;100345.91;5032614;28;20013;-80
2020/12/31 08:40:48;;;;;;;52.70;29.02;;;;;;;6.40;70.17;100336.19;5030115;28;20056;-82
2020/12/31 08:43:37;;;;;;;53.27;26.23;;;;;;;6.48;69.65;100336.13;5042672;28;20483;-81
2020/12/31 08:46:06;;;;;;;48.17;25.70;;;;;;;6.37;69.80;100338.88;5046129;28;20029;-81
2020/12/31 08:48:35;;;;;;;50.05;25.20;;;;;;;6.30;69.47;100339.81;5044845;28;20036;-80
2020/12/31 08:51:11;;;;;;;54.33;26.17;;;;;;;6.30;69.67;100347.72;5044030;28;20099;-81
2020/12/31 08:53:54;;;;;;;57.00;26.80;;;;;;;6.40;69.28;100348.50;5032578;28;20080;-81
2020/12/31 08:56:24;;;;;;;46.15;25.70;;;;;;;6.33;69.79;100342.44;5047797;28;20033;-80
2020/12/31 08:58:50;;;;;;;60.92;27.70;;;;;;;6.35;69.94;100345.91;5048623;28;20013;-80
2020/12/31 09:01:24;;;;;;;48.63;25.90;;;;;;;6.47;69.92;100351.03;5048368;28;20463;-81
2020/12/31 09:04:04;;;;;;;53.75;27.65;;;;;;;6.44;70.08;100356.34;5040787;28;20087;-81
2020/12/31 09:06:30;;;;;;;49.97;25.50;;;;;;;6.42;70.46;100352.84;5022561;28;20039;-82
2020/12/31 09:08:57;;;;;;;48.97;24.65;;;;;;;6.47;70.21;100358.94;5028654;28;20025;-80
2020/12/31 09:11:26;;;;;;;57.22;29.55;;;;;;;6.50;70.19;100357.16;5032631;28;20037;-81
2020/12/31 09:13:53;;;;;;;50.30;27.00;;;;;;;6.47;70.16;100366.84;5032141;28;20477;-80
2020/12/31 09:16:19;;;;;;;52.90;27.67;;;;;;;6.50;70.30;100359.81;5017184;28;20026;-80
2020/12/31 09:18:56;;;;;;;46.70;25.05;;;;;;;6.51;70.30;100358.91;5026611;28;20048;-81
2020/12/31 09:21:28;;;;;;;40.22;22.52;;;;;;;6.54;69.74;100362.41;5027571;28;20156;-81
2020/12/31 09:23:54;;;;;;;39.40;23.10;;;;;;;6.47;70.15;100356.31;5028656;28;20053;-80
2020/12/31 09:26:28;;;;;;;43.28;22.70;;;;;;;6.50;69.98;100363.28;5030857;28;20435;-81
2020/12/31 09:28:54;;;;;;;42.53;21.33;;;;;;;6.41;70.09;100363.41;5031965;28;20029;-81
2020/12/31 09:31:22;;;;;;;42.13;22.17;;;;;;;6.41;69.85;100366.03;5030733;28;20044;-80
2020/12/31 09:33:50;;;;;;;46.83;25.10;;;;;;;6.45;69.90;100367.75;5030721;28;20412;-81
2020/12/31 09:36:25;;;;;;;43.42;23.15;;;;;;;6.54;69.86;100362.41;5023461;28;20022;-81
2020/12/31 09:38:52;;;;;;;39.55;23.77;;;;;;;6.48;70.05;100371.22;5033807;28;20033;-80
2020/12/31 09:41:18;;;;;;;40.25;23.38;;;;;;;6.53;69.97;100370.28;5024804;28;20148;-81
2020/12/31 09:43:50;;;;;;;41.78;23.65;;;;;;;6.58;69.52;100373.72;5031876;28;20033;-81
2020/12/31 09:46:18;;;;;;;43.35;23.17;;;;;;;6.63;69.77;100382.47;5033498;28;20029;-81
2020/12/31 09:48:45;;;;;;;42.08;23.85;;;;;;;6.66;69.78;100382.44;5034221;28;20034;-81
2020/12/31 09:51:11;;;;;;;38.20;21.63;;;;;;;6.64;69.96;100378.94;5032654;28;20452;-80
2020/12/31 09:53:37;;;;;;;46.38;23.20;;;;;;;6.65;69.72;100370.16;5032388;28;20096;-78
2020/12/31 09:56:03;;;;;;;50.58;26.15;;;;;;;6.63;70.04;100379.84;5025656;28;20057;-82
2020/12/31 09:58:29;;;;;;;44.65;25.88;;;;;;;6.67;70.07;100381.53;5031872;28;20111;-80
2020/12/31 10:00:55;;;;;;;48.03;27.05;;;;;;;6.72;69.86;100369.19;5034134;28;20025;-82
2020/12/31 10:03:21;;;;;;;45.60;26.30;;;;;;;6.76;69.94;100383.19;5033062;28;20076;-82
2020/12/31 10:05:48;;;;;;;56.08;27.75;;;;;;;6.81;69.84;100381.38;5027798;28;20052;-79
2020/12/31 10:08:14;;;;;;;45.92;27.23;;;;;;;6.86;69.72;100383.97;5027219;28;20029;-80
2020/12/31 10:10:40;;;;;;;47.38;25.33;;;;;;;6.88;69.80;100392.69;5021815;28;20060;-80
2020/12/31 10:13:06;;;;;;;42.20;24.48;;;;;;;6.91;69.45;100393.53;5033669;28;20044;-80
2020/12/31 10:15:33;;;;;;;39.45;21.13;;;;;;;6.96;69.76;100393.50;5029689;28;20124;-80
2020/12/31 10:17:59;;;;;;;42.30;23.42;;;;;;;6.97;69.47;100389.97;5031708;28;20479;-80
2020/12/31 10:20:25;;;;;;;41.33;23.58;;;;;;;7.01;69.42;100389.03;5019481;28;20497;-79
2020/12/31 10:22:51;;;;;;;42.97;24.83;;;;;;;7.05;69.59;100384.59;5016547;28;20076;-80
2020/12/31 10:25:17;;;;;;;38.38;21.42;;;;;;;7.07;69.52;100383.69;5018748;28;20038;-80
2020/12/31 10:27:43;;;;;;;43.90;23.27;;;;;;;7.06;69.76;100381.94;5022917;28;20466;-80
2020/12/31 10:30:09;;;;;;;39.25;22.70;;;;;;;7.06;69.51;100381.06;5019279;28;20045;-80
2020/12/31 10:32:36;;;;;;;39.90;22.15;;;;;;;7.06;69.53;100388.97;5020316;28;20124;-80
2020/12/31 10:35:02;;;;;;;38.15;23.17;;;;;;;7.10;69.26;100383.66;5015947;28;20034;-80
2020/12/31 10:37:28;;;;;;;38.08;21.30;;;;;;;7.13;69.78;100386.25;5017349;28;20041;-80
2020/12/31 10:39:54;;;;;;;45.33;25.00;;;;;;;7.13;69.79;100380.97;5020398;28;20112;-80
2020/12/31 10:42:21;;;;;;;37.78;23.30;;;;;;;7.15;69.21;100385.34;5015482;28;20038;-80
2020/12/31 10:44:47;;;;;;;42.92;23.52;;;;;;;7.20;69.72;100383.53;5019835;28;20072;-80
2020/12/31 10:47:13;;;;;;;41.75;22.92;;;;;;;7.21;69.32;100377.38;5022086;28;20029;-80
2020/12/31 10:49:39;;;;;;;42.70;23.90;;;;;;;7.25;69.75;100381.69;5028422;28;20030;-80
2020/12/31 10:52:05;;;;;;;39.03;24.27;;;;;;;7.30;69.23;100374.59;5015886;28;20040;-81
2020/12/31 10:54:31;;;;;;;49.10;25.38;;;;;;;7.38;69.37;100366.59;5015411;28;20445;-80
2020/12/31 10:56:58;;;;;;;41.55;24.65;;;;;;;7.46;69.41;100375.25;5015978;28;20065;-80
2020/12/31 10:59:25;;;;;;;43.75;25.23;;;;;;;7.48;69.12;100373.47;5015526;28;20087;-80
2020/12/31 11:01:52;;;;;;;43.55;24.73;;;;;;;7.52;69.53;100369.03;5028256;28;20026;-80
2020/12/31 11:04:19;;;;;;;44.95;26.17;;;;;;;7.57;69.67;100375.94;5022747;28;20351;-81
2020/12/31 11:06:45;;;;;;;51.83;29.13;;;;;;;7.61;69.48;100380.31;5013734;28;20140;-80
2020/12/31 11:09:11;;;;;;;68.40;38.85;;;;;;;7.64;69.08;100376.75;5015684;28;20132;-79
2020/12/31 11:11:40;;;;;;;65.35;38.78;;;;;;;7.68;68.67;100375.78;5034324;22;20074;-84
2020/12/31 11:14:08;;;;;;;76.95;44.22;;;;;;;7.69;69.42;100371.38;4990429;28;20382;-83
2020/12/31 11:16:34;;;;;;;60.90;36.35;;;;;;;7.70;69.10;100362.59;4992646;28;20478;-82
2020/12/31 11:19:00;;;;;;;53.13;32.55;;;;;;;7.69;68.62;100367.00;4999193;28;20034;-82
2020/12/31 11:21:26;;;;;;;45.58;27.13;;;;;;;7.74;68.93;100369.56;4992735;28;20045;-81
2020/12/31 11:23:53;;;;;;;45.70;24.98;;;;;;;7.71;68.93;100370.50;4987382;28;20037;-84
2020/12/31 11:26:20;;;;;;;45.67;26.17;;;;;;;7.75;68.93;100377.44;4992539;28;20030;-81
2020/12/31 11:28:48;;;;;;;49.63;26.50;;;;;;;7.79;68.67;100375.63;4988598;28;20031;-83
2020/12/31 11:31:22;;;;;;;46.47;26.35;;;;;;;7.85;68.44;100367.63;4992079;28;20085;-84
2020/12/31 11:33:48;;;;;;;40.92;23.60;;;;;;;7.89;68.64;100368.44;4991963;28;20034;-84
2020/12/31 11:36:14;;;;;;;38.75;23.83;;;;;;;7.91;68.42;100371.91;4991628;28;20045;-84
2020/12/31 11:38:41;;;;;;;44.97;25.75;;;;;;;7.91;67.80;100367.53;4991167;28;20122;-84
2020/12/31 11:41:08;;;;;;;48.88;26.35;;;;;;;7.91;68.41;100362.25;4992280;28;20026;-83
2020/12/31 11:43:35;;;;;;;46.80;26.23;;;;;;;7.94;68.15;100366.59;4992519;28;20023;-83
2020/12/31 11:46:03;;;;;;;44.47;25.08;;;;;;;7.93;67.59;100359.56;4991732;28;20773;-83
2020/12/31 11:48:30;;;;;;;39.25;24.15;;;;;;;7.93;67.44;100354.31;4991787;28;20041;-83
2020/12/31 11:50:56;;;;;;;42.35;23.13;;;;;;;7.94;67.35;100356.06;4991191;28;20077;-83
2020/12/31 11:53:22;;;;;;;42.00;23.48;;;;;;;7.96;67.21;100356.88;4991684;28;20133;-83
2020/12/31 11:55:50;;;;;;;36.45;22.83;;;;;;;7.99;67.59;100353.31;4991685;28;20019;-83
2020/12/31 11:58:17;;;;;;;39.13;21.63;;;;;;;8.01;67.59;100352.41;4992253;28;20080;-81